Cypress, California
Current Conditions -  °F | °C
As of 10:58 AM on Saturday 25 Oct 2014 (Local Time) from KSLI Reporting Station
Few Clouds Few Clouds  
Wind Chill: 75°   Ceiling: Unl
Heat Index: 75°   Visibility: 10mi
Dew Point: 62°   Wind: 6mph
Humidity: 64%   Direction: 210°SSW
Pressure: 30.06"   Gusts: NA
Location:  33.82°N, 118.03°W
Report Text: KSLI 251758Z 21005KT 10SM FEW200 24/17 A3006 RMK AO2A SLP182 T02400168 10240 20173 51011
Loading
Personal Weather Stations






























Interactive Weather Map
Tropical Storm Tracking
New forecast layout! Learn more

10-Day Weather Forecast

Advertisements
Track Severe Weather on mobile